Terminal Aerodrome Forecast
Issued by NWS Binghamton, NY

Home | Current Version | Previous Version | Text Only | Print | Product List | Glossary On
Versions: 1 2 3 4 5 6 7 8 9 10 11 12 13 14 15 16 17 18 19
000
FTUS41 KBGM 230500
TAFBGM
TAF
KBGM 230537Z 2306/2406 30010G16KT P6SM OVC025
     FM230900 32010G18KT P6SM -SHRA OVC012
      TEMPO 2309/2313 2SM -SHRASN BR OVC008
     FM231500 32018G25KT P6SM BKN020
     FM232100 32018G28KT P6SM BKN035
     FM240200 33012KT P6SM SCT030=

USA.gov is the U.S. government's official web portal to all federal, state and local government web resources and services.